Time;durP1;ratioP1;P1;durP2;ratioP2;P2;SDS_P1;SDS_P2;PMS_P1;PMS_P2;Temp;Humidity;BMP_temperature;BMP_pressure;BME280_temperature;BME280_humidity;BME280_pressure;Samples;Min_cycle;Max_cycle;Signal;HPM_P1;HPM_P2
2023/01/11 00:23:06;;;;;;;17.90;7.30;;;;;;;-4.81;76.12;100380.06;104917;1282;613198;-39
2023/01/11 00:25:33;;;;;;;18.70;6.60;;;;;;;-4.41;73.24;100381.10;106247;1266;365647;-39
2023/01/11 00:28:01;;;;;;;15.50;6.60;;;;;;;-4.54;73.50;100388.70;105873;1266;1003043;-39
2023/01/11 00:30:28;;;;;;;19.70;7.80;;;;;;;-4.64;73.40;100384.36;106609;1265;73618;-39
2023/01/11 00:32:58;;;;;;;15.80;7.10;;;;;;;-4.78;73.09;100380.49;106592;1266;69008;-39
2023/01/11 00:35:26;;;;;;;18.30;6.30;;;;;;;-4.82;73.30;100384.34;106636;1268;73700;-39
2023/01/11 00:37:53;;;;;;;13.60;6.50;;;;;;;-4.86;73.33;100390.56;106721;1265;59391;-39
2023/01/11 00:40:22;;;;;;;15.50;6.60;;;;;;;-4.91;73.25;100394.45;107377;1253;60146;-39
2023/01/11 00:48:21;;;;;;;16.50;6.70;;;;;;;-4.98;73.57;100396.54;107439;1255;74011;-39
2023/01/11 00:50:48;;;;;;;15.90;7.00;;;;;;;-5.02;73.41;100394.85;107454;1258;60734;-39
2023/01/11 00:53:17;;;;;;;19.00;7.10;;;;;;;-5.05;73.72;100399.30;107113;1253;62455;-39
2023/01/11 00:55:45;;;;;;;17.70;7.20;;;;;;;-5.07;73.87;100397.96;107486;1259;74485;-39
2023/01/11 00:58:12;;;;;;;17.80;6.60;;;;;;;-5.08;73.75;100398.55;107453;1253;67923;-39
2023/01/11 01:00:39;;;;;;;18.30;7.00;;;;;;;-5.06;73.79;100399.05;106654;1253;1003093;-39
2023/01/11 01:03:07;;;;;;;16.20;7.10;;;;;;;-5.09;73.90;100402.43;107433;1253;59646;-39
2023/01/11 01:05:37;;;;;;;20.70;7.60;;;;;;;-5.11;73.98;100410.48;106747;1253;1002769;-39
2023/01/11 01:08:05;;;;;;;14.90;6.20;;;;;;;-5.14;74.02;100410.95;107512;1253;73319;-39
2023/01/11 01:10:32;;;;;;;20.60;7.20;;;;;;;-5.09;73.94;100416.48;107474;1253;69619;-39
2023/01/11 01:15:44;;;;;;;15.50;7.20;;;;;;;-5.05;73.72;100410.86;107340;1253;59820;-39
2023/01/11 01:18:12;;;;;;;16.50;6.50;;;;;;;-5.07;73.72;100424.52;107333;1253;61704;-39
2023/01/11 01:20:39;;;;;;;13.50;6.50;;;;;;;-5.08;73.48;100436.50;107390;1257;74197;-38
2023/01/11 01:23:06;;;;;;;15.00;7.20;;;;;;;-5.07;73.26;100430.91;106515;1253;1003616;-39
2023/01/11 01:25:36;;;;;;;19.60;7.00;;;;;;;-5.02;73.24;100426.38;107312;1253;71894;-39
2023/01/11 01:28:05;;;;;;;15.80;7.20;;;;;;;-5.02;73.26;100425.16;106563;1253;1003839;-38
2023/01/11 01:30:32;;;;;;;24.10;7.80;;;;;;;-5.03;73.40;100424.17;107364;1253;59351;-38
2023/01/11 01:32:59;;;;;;;20.20;7.90;;;;;;;-5.06;73.36;100423.85;106591;1253;1002840;-39
2023/01/11 01:35:26;;;;;;;21.20;6.70;;;;;;;-5.09;73.34;100421.64;107355;1259;70338;-38
2023/01/11 01:37:54;;;;;;;20.90;6.90;;;;;;;-5.01;73.00;100431.89;107330;1253;72965;-38
2023/01/11 01:40:21;;;;;;;16.80;7.80;;;;;;;-4.97;72.26;100431.34;107255;1254;61575;-38
2023/01/11 01:42:52;;;;;;;14.70;7.00;;;;;;;-5.01;71.82;100427.17;107327;1258;59626;-40
2023/01/11 01:45:24;;;;;;;19.70;8.00;;;;;;;-5.07;71.68;100425.73;107438;1253;72429;-39
2023/01/11 01:47:59;;;;;;;17.80;6.70;;;;;;;-5.11;71.83;100428.50;106609;1253;1002890;-39
2023/01/11 01:50:31;;;;;;;16.10;6.60;;;;;;;-5.12;71.97;100422.86;107313;1260;72017;-39
2023/01/11 01:53:04;;;;;;;18.70;7.20;;;;;;;-5.07;71.92;100424.73;107339;1254;59769;-39
2023/01/11 01:55:34;;;;;;;16.30;7.00;;;;;;;-5.06;72.02;100425.48;107389;1253;61504;-39
2023/01/11 01:58:01;;;;;;;;;;;;;;;-5.09;71.61;100423.84;107422;1253;75256;-39
2023/01/11 02:00:29;;;;;;;20.60;7.10;;;;;;;-5.21;71.33;100424.20;107363;1253;67833;-39
2023/01/11 02:02:56;;;;;;;18.90;6.80;;;;;;;-5.29;71.38;100429.10;107375;1255;72594;-39
2023/01/11 02:05:23;;;;;;;13.80;6.40;;;;;;;-5.24;71.47;100427.25;107294;1253;63646;-39
2023/01/11 02:07:53;;;;;;;15.80;5.70;;;;;;;-5.25;71.11;100413.74;107279;1253;60863;-39
2023/01/11 02:10:21;;;;;;;18.90;6.90;;;;;;;-5.14;70.83;100433.60;107400;1253;74579;-40
2023/01/11 02:13:04;;;;;;;14.90;6.60;;;;;;;-5.15;70.69;100433.21;107390;1253;69850;-39
2023/01/11 02:15:31;;;;;;;18.90;6.50;;;;;;;-5.18;70.76;100440.34;107384;1259;73785;-40
2023/01/11 02:17:58;;;;;;;18.10;7.30;;;;;;;-5.21;70.85;100439.48;107396;1256;61290;-39
2023/01/11 02:20:46;;;;;;;14.30;6.50;;;;;;;-5.23;71.12;100444.83;107323;1253;60746;-40
2023/01/11 02:23:30;;;;;;;17.70;7.40;;;;;;;-5.18;71.39;100444.40;107338;1253;73421;-39
2023/01/11 02:26:16;;;;;;;15.40;6.50;;;;;;;-5.13;71.43;100437.80;107286;1253;66929;-39
2023/01/11 02:29:14;;;;;;;22.70;7.60;;;;;;;-5.12;71.00;100437.71;107300;1253;74040;-40
2023/01/11 02:31:58;;;;;;;21.70;7.10;;;;;;;-5.16;70.77;100438.84;106961;1256;61765;-39
2023/01/11 02:34:28;;;;;;;16.60;6.50;;;;;;;-5.18;70.83;100440.06;107327;1253;62306;-39
2023/01/11 02:37:26;;;;;;;16.60;6.60;;;;;;;-5.23;70.92;100442.38;107240;1253;75260;-39
2023/01/11 02:39:57;;;;;;;12.50;5.70;;;;;;;-5.13;70.15;100449.48;107274;1253;69693;-39
2023/01/11 02:45:41;;;;;;;11.30;5.50;;;;;;;-5.10;68.08;100447.08;106565;1254;1003676;-40
2023/01/11 02:48:25;;;;;;;11.70;5.30;;;;;;;-5.14;67.10;100441.91;107346;1253;61361;-39
2023/01/11 02:50:52;;;;;;;15.80;6.10;;;;;;;-5.17;66.65;100437.97;107378;1259;74757;-39
2023/01/11 02:53:36;;;;;;;13.60;6.00;;;;;;;-5.23;66.76;100438.23;106607;1258;1003155;-39
2023/01/11 02:56:07;;;;;;;10.40;5.60;;;;;;;-5.28;66.77;100435.10;107230;1253;73850;-39
2023/01/11 02:58:36;;;;;;;13.30;5.80;;;;;;;-5.31;66.28;100433.36;107397;1257;62271;-39
2023/01/11 03:01:03;;;;;;;19.10;6.40;;;;;;;-5.32;66.69;100427.60;107430;1253;62038;-39
2023/01/11 03:03:31;;;;;;;15.60;6.60;;;;;;;-5.31;66.90;100425.23;107103;1261;74629;-39
2023/01/11 03:06:29;;;;;;;11.20;5.40;;;;;;;-5.25;67.10;100423.16;107321;1260;67945;-39
2023/01/11 03:09:13;;;;;;;25.80;7.00;;;;;;;-5.22;67.24;100429.27;107370;1256;72772;-39
2023/01/11 03:14:52;;;;;;;23.40;6.60;;;;;;;-5.31;67.95;100440.41;107269;1253;61893;-39
2023/01/11 03:17:22;;;;;;;14.90;5.80;;;;;;;-5.38;68.55;100443.31;107297;1253;72692;-39
2023/01/11 03:19:53;;;;;;;18.40;6.90;;;;;;;-5.36;68.38;100448.70;107240;1253;69314;-39
2023/01/11 03:22:23;;;;;;;17.30;6.00;;;;;;;-5.32;68.42;100460.04;107185;1259;74975;-39
2023/01/11 03:25:00;;;;;;;16.80;6.60;;;;;;;-5.34;68.57;100465.92;107406;1254;59509;-39
2023/01/11 03:27:49;;;;;;;14.70;6.10;;;;;;;-5.36;68.32;100478.65;107383;1255;62433;-39
2023/01/11 03:30:30;;;;;;;17.30;6.50;;;;;;;-5.44;67.86;100479.89;107387;1254;74308;-39
2023/01/11 03:33:05;;;;;;;17.50;6.60;;;;;;;-5.54;67.98;100478.49;107381;1253;67273;-39
2023/01/11 03:35:56;;;;;;;13.10;5.50;;;;;;;-5.60;68.11;100472.64;106547;1260;1003584;-39
2023/01/11 03:38:34;;;;;;;11.70;5.50;;;;;;;-5.53;67.83;100473.96;107368;1259;60176;-39
2023/01/11 03:41:07;;;;;;;11.10;5.20;;;;;;;-5.60;67.11;100477.98;107346;1254;61136;-39
2023/01/11 03:43:35;;;;;;;20.90;6.40;;;;;;;-5.67;66.71;100483.08;107370;1253;74097;-39
2023/01/11 03:46:10;;;;;;;11.00;6.40;;;;;;;-5.73;66.86;100486.05;107383;1253;69600;-39
2023/01/11 03:48:40;;;;;;;14.00;6.20;;;;;;;-5.80;66.85;100491.83;107296;1253;74655;-39
2023/01/11 03:51:09;;;;;;;17.80;6.70;;;;;;;-5.87;67.19;100496.95;107334;1254;61191;-39
2023/01/11 10:31:29;;;;;;;14.10;6.90;;;;;;;-5.36;56.62;100515.56;105128;1284;613845;-40
2023/01/11 10:34:23;;;;;;;13.30;6.80;;;;;;;-5.02;55.86;100521.25;106268;1270;290905;-40
2023/01/11 10:43:07;;;;;;;13.20;6.90;;;;;;;-5.27;55.59;100516.16;106644;1263;70844;-40
2023/01/11 10:45:49;;;;;;;15.90;7.40;;;;;;;-5.31;55.84;100513.95;106669;1263;73993;-39
2023/01/11 10:48:24;;;;;;;14.30;6.60;;;;;;;-5.31;55.54;100521.92;106639;1264;62516;-40
2023/01/11 10:51:26;;;;;;;16.30;6.90;;;;;;;-5.32;55.72;100523.16;106692;1263;60548;-40
2023/01/11 10:54:03;;;;;;;17.50;6.90;;;;;;;-5.30;55.89;100512.11;106757;1263;74617;-40
2023/01/11 10:56:40;;;;;;;14.00;7.00;;;;;;;-5.24;55.84;100500.58;106733;1263;68986;-40
2023/01/11 10:59:54;;;;;;;18.80;7.60;;;;;;;-5.11;55.57;100495.73;106024;1269;1003218;-40
2023/01/11 11:02:48;;;;;;;15.00;7.60;;;;;;;-5.00;55.57;100501.80;106774;1267;60888;-40
2023/01/11 11:05:21;;;;;;;14.70;7.80;;;;;;;-4.86;55.39;100495.27;105974;1263;1003710;-40
2023/01/11 11:08:27;;;;;;;13.10;7.00;;;;;;;-4.74;55.54;100493.83;106685;1263;74698;-40
2023/01/11 11:10:59;;;;;;;18.20;7.30;;;;;;;-4.62;54.87;100490.47;106697;1263;70095;-40
2023/01/11 11:13:38;;;;;;;16.20;6.90;;;;;;;-4.56;55.15;100484.61;106702;1263;74854;-40
2023/01/11 11:16:51;;;;;;;15.80;6.90;;;;;;;-4.45;54.87;100486.84;105929;1265;1003266;-40
2023/01/11 11:19:20;;;;;;;14.40;7.20;;;;;;;-4.50;54.39;100491.30;106779;1264;61902;-38
2023/01/11 11:21:47;;;;;;;13.00;6.60;;;;;;;-4.66;54.35;100493.85;106002;1263;1003511;-39
2023/01/11 11:24:31;;;;;;;15.20;6.70;;;;;;;-4.75;55.08;100493.13;106720;1269;69737;-39
2023/01/11 11:27:14;;;;;;;12.90;7.00;;;;;;;-4.79;55.58;100488.02;106703;1264;72035;-39
2023/01/11 11:29:42;;;;;;;14.80;7.20;;;;;;;-4.79;55.48;100494.36;106683;1265;62120;-39
2023/01/11 11:32:17;;;;;;;16.60;8.10;;;;;;;-4.79;55.30;100504.73;106794;1265;61421;-40
2023/01/11 11:34:50;;;;;;;15.40;7.10;;;;;;;-4.76;55.42;100506.48;106672;1265;74433;-40
2023/01/11 11:37:39;;;;;;;14.10;6.90;;;;;;;-4.72;55.43;100500.96;105883;1265;1003170;-41
2023/01/11 11:40:36;;;;;;;15.90;7.30;;;;;;;-4.69;55.28;100489.30;106754;1265;74036;-41
2023/01/11 11:43:17;;;;;;;15.20;7.10;;;;;;;-4.64;55.62;100481.25;106685;1265;60527;-40
2023/01/11 11:45:56;;;;;;;17.10;8.10;;;;;;;-4.55;55.10;100473.52;106004;1264;1002966;-40
2023/01/11 11:48:24;;;;;;;18.30;7.30;;;;;;;-4.46;54.79;100473.33;106638;1269;74184;-41
2023/01/11 11:50:53;;;;;;;16.90;6.80;;;;;;;-4.39;54.34;100477.48;105899;1266;1003652;-40
2023/01/11 11:53:31;;;;;;;16.60;7.60;;;;;;;-4.31;53.92;100482.77;106658;1265;74663;-41
2023/01/11 11:55:59;;;;;;;14.40;7.30;;;;;;;-4.24;53.95;100488.86;106604;1266;60949;-41
2023/01/11 11:58:26;;;;;;;14.80;7.10;;;;;;;-4.18;53.67;100494.00;106615;1266;61539;-41
2023/01/11 12:00:53;;;;;;;15.40;6.90;;;;;;;-4.11;53.64;100494.31;106694;1265;74572;-40
2023/01/11 12:03:28;;;;;;;19.30;7.10;;;;;;;-4.02;53.55;100494.48;106737;1269;71022;-40
2023/01/11 12:06:00;;;;;;;21.70;7.60;;;;;;;-3.93;53.42;100495.27;106734;1269;71477;-40
2023/01/11 12:08:30;;;;;;;18.10;6.90;;;;;;;-3.82;53.09;100489.50;106138;1262;1003117;-40
2023/01/11 16:56:13;;;;;;;26.60;13.50;;;;;;;-6.48;65.23;100542.34;105120;1283;613659;-39
2023/01/11 16:58:40;;;;;;;31.00;13.40;;;;;;;-5.93;63.61;100535.35;106493;1267;179294;-39
2023/01/11 17:01:12;;;;;;;27.40;14.70;;;;;;;-5.94;63.25;100534.73;106584;1267;59302;-39
2023/01/11 17:03:45;;;;;;;26.90;14.20;;;;;;;-5.92;63.14;100541.17;106720;1265;73615;-39
2023/01/11 17:06:18;;;;;;;29.20;14.90;;;;;;;-5.90;62.32;100532.58;105866;1265;1003774;-39
2023/01/11 17:08:49;;;;;;;27.30;14.20;;;;;;;-5.95;62.25;100534.84;106760;1271;74282;-39
2023/01/11 17:11:22;;;;;;;31.30;14.60;;;;;;;-6.01;62.00;100534.23;106806;1265;60867;-39
2023/01/11 17:14:11;;;;;;;31.40;15.40;;;;;;;-6.05;61.79;100532.16;106759;1264;61937;-39
2023/01/11 17:16:46;;;;;;;31.10;13.90;;;;;;;-6.12;61.97;100526.79;106742;1267;73003;-39
2023/01/11 17:19:16;;;;;;;29.20;14.20;;;;;;;-6.22;61.83;100518.20;106750;1267;70990;-39
2023/01/11 17:21:55;;;;;;;26.40;13.60;;;;;;;-6.29;61.81;100521.86;106773;1267;74127;-39
2023/01/11 17:24:24;;;;;;;30.70;13.50;;;;;;;-6.38;61.89;100528.16;106766;1267;60179;-39
2023/01/11 17:26:54;;;;;;;29.90;14.00;;;;;;;-6.47;62.04;100526.86;106030;1264;1003017;-39
2023/01/11 17:29:34;;;;;;;32.80;14.00;;;;;;;-6.51;62.21;100531.60;106612;1272;74515;-39
2023/01/11 17:32:02;;;;;;;29.00;12.90;;;;;;;-6.46;62.00;100528.83;106729;1264;70024;-39
2023/01/11 17:34:32;;;;;;;24.80;13.30;;;;;;;-6.34;62.16;100533.98;106754;1267;74058;-39
2023/01/11 17:37:01;;;;;;;25.30;12.80;;;;;;;-6.24;61.86;100526.79;106818;1264;60404;-39
2023/01/11 17:39:33;;;;;;;32.40;13.50;;;;;;;-6.19;61.77;100523.44;106807;1267;60265;-39
2023/01/11 17:47:33;;;;;;;29.50;14.80;;;;;;;-6.16;61.41;100509.89;105817;1267;1002947;-38
2023/01/11 17:50:01;;;;;;;35.90;14.90;;;;;;;-6.21;61.13;100509.75;106612;1267;59874;-39
2023/01/11 17:52:35;;;;;;;26.70;14.80;;;;;;;-6.25;61.44;100510.61;106594;1264;62393;-39
2023/01/11 17:55:17;;;;;;;34.60;15.60;;;;;;;-6.33;61.17;100507.58;106628;1265;74221;-39
2023/01/11 17:58:08;;;;;;;33.80;15.70;;;;;;;-6.48;61.28;100503.83;106644;1266;71170;-39
2023/01/11 18:00:35;;;;;;;31.80;14.40;;;;;;;-6.65;61.82;100497.26;105954;1266;1002928;-39
2023/01/11 18:03:13;;;;;;;34.20;15.80;;;;;;;-6.78;61.89;100491.80;106744;1267;62682;-39
2023/01/11 18:05:40;;;;;;;33.10;15.60;;;;;;;-6.84;62.41;100485.86;106750;1267;60228;-39
2023/01/11 18:08:16;;;;;;;31.30;14.00;;;;;;;-6.86;62.37;100482.38;106703;1272;75187;-39
2023/01/11 18:10:49;;;;;;;31.60;14.90;;;;;;;-6.85;62.40;100480.55;106761;1266;70151;-39
2023/01/11 18:13:33;;;;;;;32.90;14.70;;;;;;;-6.81;62.75;100483.23;106745;1267;74181;-39
2023/01/11 18:16:01;;;;;;;35.60;14.70;;;;;;;-6.81;62.58;100479.17;106707;1266;60355;-39
2023/01/11 18:18:44;;;;;;;29.10;14.80;;;;;;;-6.82;62.53;100480.77;106799;1265;62034;-39
2023/01/11 18:21:24;;;;;;;32.10;14.50;;;;;;;-6.87;62.65;100474.48;106729;1265;75270;-39
2023/01/11 18:24:06;;;;;;;33.90;14.00;;;;;;;-6.97;62.66;100481.92;106726;1272;70380;-39
2023/01/11 18:26:34;;;;;;;27.90;14.20;;;;;;;-7.09;62.82;100485.48;105971;1267;1003056;-39
2023/01/11 18:29:02;;;;;;;33.90;15.10;;;;;;;-7.16;62.92;100489.88;107049;1258;61854;-39
2023/01/11 18:31:29;;;;;;;31.70;14.50;;;;;;;-7.24;63.17;100487.33;107076;1257;62588;-38
2023/01/11 18:33:57;;;;;;;34.30;13.60;;;;;;;-7.30;63.30;100483.32;106970;1257;72669;-39
2023/01/11 18:36:26;;;;;;;30.80;13.10;;;;;;;-7.40;63.53;100473.88;107033;1263;70628;-39
2023/01/11 18:38:53;;;;;;;24.40;11.70;;;;;;;-7.30;63.83;100481.50;107044;1262;71566;-39
2023/01/11 18:44:08;;;;;;;29.40;14.30;;;;;;;-7.20;64.14;100468.60;107031;1257;59680;-39
2023/01/11 18:46:35;;;;;;;29.50;13.50;;;;;;;-7.22;64.30;100465.75;107067;1257;72191;-39
2023/01/11 18:49:02;;;;;;;33.60;14.80;;;;;;;-7.23;64.34;100458.66;105561;1262;1003802;-39
2023/01/11 18:51:34;;;;;;;38.40;15.50;;;;;;;-7.24;64.48;100454.61;107039;1260;74889;-39
2023/01/11 18:54:01;;;;;;;33.40;15.40;;;;;;;-7.30;64.10;100451.81;107045;1261;61984;-39
2023/01/11 18:56:29;;;;;;;31.10;14.30;;;;;;;-7.41;64.46;100453.71;107049;1260;59647;-41
2023/01/11 18:58:56;;;;;;;33.50;13.30;;;;;;;-7.52;64.87;100444.71;106276;1260;1003807;-39
2023/01/11 19:01:24;;;;;;;24.10;12.80;;;;;;;-7.55;65.13;100444.79;107030;1260;70246;-39
2023/01/11 19:03:51;;;;;;;27.20;13.70;;;;;;;-7.54;65.26;100444.09;107052;1264;74394;-38
2023/01/11 19:06:21;;;;;;;32.60;13.80;;;;;;;-7.46;65.23;100437.42;107018;1260;62406;-39
2023/01/11 19:08:48;;;;;;;28.70;12.50;;;;;;;-7.37;65.06;100434.70;107066;1264;61653;-39
2023/01/11 19:11:16;;;;;;;30.20;15.10;;;;;;;-7.35;65.20;100435.78;107057;1259;74101;-39
2023/01/11 19:13:43;;;;;;;28.10;14.80;;;;;;;-7.33;65.09;100430.63;106914;1260;69845;-39
2023/01/11 19:16:13;;;;;;;29.70;15.10;;;;;;;-7.33;64.75;100427.14;107071;1264;74049;-40
2023/01/11 19:18:40;;;;;;;34.60;15.80;;;;;;;-7.37;64.71;100424.75;106947;1260;59647;-38
2023/01/11 19:21:12;;;;;;;32.90;16.00;;;;;;;-7.48;64.68;100418.88;107064;1259;62931;-39
2023/01/11 19:23:40;;;;;;;33.50;14.60;;;;;;;-7.59;64.81;100417.15;107052;1264;74438;-39
2023/01/11 19:26:07;;;;;;;33.90;15.80;;;;;;;-7.67;65.20;100408.71;107026;1260;68451;-38
2023/01/11 19:28:35;;;;;;;30.50;13.90;;;;;;;-7.64;65.12;100405.36;106258;1260;1003828;-38
2023/01/11 19:31:07;;;;;;;37.00;14.70;;;;;;;-7.61;65.64;100403.56;107034;1260;60552;-38
2023/01/11 19:33:34;;;;;;;27.70;14.10;;;;;;;-7.54;65.50;100402.57;107042;1259;61220;-39
2023/01/11 19:36:08;;;;;;;26.00;13.80;;;;;;;-7.47;65.61;100399.31;106925;1260;74090;-39
2023/01/11 19:38:35;;;;;;;30.40;14.90;;;;;;;-7.43;65.57;100402.27;106945;1264;70161;-39
2023/01/11 19:41:04;;;;;;;29.50;14.60;;;;;;;-7.43;65.47;100400.23;106811;1260;74601;-39
2023/01/11 19:43:31;;;;;;;30.70;15.20;;;;;;;-7.43;65.40;100403.48;106947;1260;59627;-39
2023/01/11 19:45:58;;;;;;;37.90;15.40;;;;;;;-7.47;65.36;100405.39;107022;1260;61806;-39
2023/01/11 19:48:25;;;;;;;36.00;14.90;;;;;;;-7.48;65.83;100411.30;106970;1260;74418;-39
2023/01/11 19:51:03;;;;;;;34.90;14.30;;;;;;;-7.52;65.97;100411.34;107006;1264;68975;-39
2023/01/11 19:53:31;;;;;;;33.10;14.10;;;;;;;-7.52;65.96;100407.98;106804;1264;74150;-39
2023/01/11 19:56:00;;;;;;;32.10;13.80;;;;;;;-7.43;66.00;100405.66;107084;1262;63471;-39
2023/01/11 19:58:27;;;;;;;26.00;12.00;;;;;;;-7.29;66.23;100401.40;107111;1263;61726;-39
2023/01/11 20:00:54;;;;;;;31.90;12.50;;;;;;;-7.13;66.09;100401.45;107043;1260;71983;-39
2023/01/11 20:03:22;;;;;;;32.40;14.30;;;;;;;-6.99;66.02;100399.20;107022;1262;70124;-39
2023/01/11 20:05:49;;;;;;;27.50;13.30;;;;;;;-6.87;65.84;100395.54;107091;1258;73776;-39
2023/01/11 20:08:16;;;;;;;29.10;14.40;;;;;;;-6.80;65.39;100398.25;107022;1263;60336;-39
2023/01/11 20:10:43;;;;;;;30.20;13.40;;;;;;;-6.78;65.24;100393.46;107084;1262;60329;-39
